sensor_id;sensor_type;location;lat;lon;timestamp;P1;durP1;ratioP1;P2;durP2;ratioP2
25982;SDS011;13773;48.868;10.730;2022-09-09T00:04:29;6.90;;;5.87;;
25982;SDS011;13773;48.868;10.730;2022-09-09T00:06:59;8.13;;;6.77;;
25982;SDS011;13773;48.868;10.730;2022-09-09T00:09:47;8.30;;;5.80;;
25982;SDS011;13773;48.868;10.730;2022-09-09T00:15:26;7.00;;;4.80;;
25982;SDS011;13773;48.868;10.730;2022-09-09T00:20:42;6.70;;;6.00;;
25982;SDS011;13773;48.868;10.730;2022-09-09T00:23:28;7.10;;;6.40;;
25982;SDS011;13773;48.868;10.730;2022-09-09T00:26:15;5.73;;;5.20;;
25982;SDS011;13773;48.868;10.730;2022-09-09T00:31:37;5.43;;;4.10;;
25982;SDS011;13773;48.868;10.730;2022-09-09T00:34:21;7.63;;;5.77;;
25982;SDS011;13773;48.868;10.730;2022-09-09T00:36:50;5.97;;;5.33;;
25982;SDS011;13773;48.868;10.730;2022-09-09T00:58:40;4.33;;;2.57;;
25982;SDS011;13773;48.868;10.730;2022-09-09T01:01:11;4.20;;;2.90;;
25982;SDS011;13773;48.868;10.730;2022-09-09T01:06:30;4.53;;;3.00;;
25982;SDS011;13773;48.868;10.730;2022-09-09T01:16:50;3.80;;;3.27;;
25982;SDS011;13773;48.868;10.730;2022-09-09T01:20:04;3.33;;;3.03;;
25982;SDS011;13773;48.868;10.730;2022-09-09T01:28:06;4.83;;;3.70;;
25982;SDS011;13773;48.868;10.730;2022-09-09T01:30:38;5.47;;;3.97;;
25982;SDS011;13773;48.868;10.730;2022-09-09T01:33:05;6.03;;;4.00;;
25982;SDS011;13773;48.868;10.730;2022-09-09T01:38:25;5.93;;;4.20;;
25982;SDS011;13773;48.868;10.730;2022-09-09T01:40:52;4.80;;;4.10;;
25982;SDS011;13773;48.868;10.730;2022-09-09T01:43:22;5.70;;;3.83;;
25982;SDS011;13773;48.868;10.730;2022-09-09T01:45:49;4.83;;;3.63;;
25982;SDS011;13773;48.868;10.730;2022-09-09T01:48:17;5.00;;;3.67;;
25982;SDS011;13773;48.868;10.730;2022-09-09T01:50:43;5.10;;;4.00;;
25982;SDS011;13773;48.868;10.730;2022-09-09T01:53:09;5.30;;;4.07;;
25982;SDS011;13773;48.868;10.730;2022-09-09T01:55:37;4.40;;;4.00;;
25982;SDS011;13773;48.868;10.730;2022-09-09T01:58:27;5.63;;;4.73;;
25982;SDS011;13773;48.868;10.730;2022-09-09T02:00:54;6.40;;;4.20;;
25982;SDS011;13773;48.868;10.730;2022-09-09T02:03:31;4.60;;;4.20;;
25982;SDS011;13773;48.868;10.730;2022-09-09T02:08:49;4.13;;;3.53;;
25982;SDS011;13773;48.868;10.730;2022-09-09T02:13:45;6.10;;;4.40;;
25982;SDS011;13773;48.868;10.730;2022-09-09T02:21:52;4.27;;;3.87;;
25982;SDS011;13773;48.868;10.730;2022-09-09T02:24:20;9.37;;;4.03;;
25982;SDS011;13773;48.868;10.730;2022-09-09T02:26:48;5.53;;;4.07;;
25982;SDS011;13773;48.868;10.730;2022-09-09T02:29:25;6.13;;;4.27;;
25982;SDS011;13773;48.868;10.730;2022-09-09T02:31:55;5.57;;;3.77;;
25982;SDS011;13773;48.868;10.730;2022-09-09T02:34:25;5.13;;;4.00;;
25982;SDS011;13773;48.868;10.730;2022-09-09T02:36:53;6.47;;;3.50;;
25982;SDS011;13773;48.868;10.730;2022-09-09T02:39:20;6.03;;;3.83;;
25982;SDS011;13773;48.868;10.730;2022-09-09T02:41:45;4.20;;;3.47;;
25982;SDS011;13773;48.868;10.730;2022-09-09T02:44:16;5.57;;;3.10;;
25982;SDS011;13773;48.868;10.730;2022-09-09T02:52:26;5.97;;;3.20;;
25982;SDS011;13773;48.868;10.730;2022-09-09T02:55:04;3.00;;;2.70;;
25982;SDS011;13773;48.868;10.730;2022-09-09T02:57:37;3.13;;;2.53;;
25982;SDS011;13773;48.868;10.730;2022-09-09T03:00:04;4.07;;;2.80;;
25982;SDS011;13773;48.868;10.730;2022-09-09T03:02:31;4.07;;;2.97;;
25982;SDS011;13773;48.868;10.730;2022-09-09T03:04:56;2.77;;;2.53;;
25982;SDS011;13773;48.868;10.730;2022-09-09T03:07:23;4.70;;;2.47;;
25982;SDS011;13773;48.868;10.730;2022-09-09T03:09:48;2.70;;;2.47;;
25982;SDS011;13773;48.868;10.730;2022-09-09T03:12:14;4.70;;;2.13;;
25982;SDS011;13773;48.868;10.730;2022-09-09T03:14:41;4.20;;;2.80;;
25982;SDS011;13773;48.868;10.730;2022-09-09T03:17:08;5.20;;;2.40;;
25982;SDS011;13773;48.868;10.730;2022-09-09T03:19:34;3.03;;;2.23;;
25982;SDS011;13773;48.868;10.730;2022-09-09T03:22:01;3.03;;;2.20;;
25982;SDS011;13773;48.868;10.730;2022-09-09T03:24:26;2.90;;;2.60;;
25982;SDS011;13773;48.868;10.730;2022-09-09T03:26:52;4.97;;;2.20;;
25982;SDS011;13773;48.868;10.730;2022-09-09T03:29:18;4.60;;;2.23;;
25982;SDS011;13773;48.868;10.730;2022-09-09T03:31:44;4.13;;;2.20;;
25982;SDS011;13773;48.868;10.730;2022-09-09T03:34:10;4.27;;;1.93;;
25982;SDS011;13773;48.868;10.730;2022-09-09T03:36:36;2.97;;;2.30;;
25982;SDS011;13773;48.868;10.730;2022-09-09T03:39:02;2.40;;;1.90;;
25982;SDS011;13773;48.868;10.730;2022-09-09T03:41:28;4.87;;;2.17;;
25982;SDS011;13773;48.868;10.730;2022-09-09T03:43:54;4.17;;;2.40;;
25982;SDS011;13773;48.868;10.730;2022-09-09T03:46:21;6.40;;;2.20;;
25982;SDS011;13773;48.868;10.730;2022-09-09T03:48:48;3.57;;;2.17;;
25982;SDS011;13773;48.868;10.730;2022-09-09T03:51:14;5.57;;;2.13;;
25982;SDS011;13773;48.868;10.730;2022-09-09T03:53:41;4.00;;;2.30;;
25982;SDS011;13773;48.868;10.730;2022-09-09T03:56:08;3.70;;;2.57;;
25982;SDS011;13773;48.868;10.730;2022-09-09T03:58:34;3.50;;;2.30;;
25982;SDS011;13773;48.868;10.730;2022-09-09T04:01:12;3.77;;;2.30;;
25982;SDS011;13773;48.868;10.730;2022-09-09T04:03:38;5.27;;;2.50;;
25982;SDS011;13773;48.868;10.730;2022-09-09T04:06:05;3.83;;;2.40;;
25982;SDS011;13773;48.868;10.730;2022-09-09T04:08:32;2.50;;;2.30;;
25982;SDS011;13773;48.868;10.730;2022-09-09T04:10:58;4.10;;;2.30;;
25982;SDS011;13773;48.868;10.730;2022-09-09T04:13:26;2.40;;;2.20;;
25982;SDS011;13773;48.868;10.730;2022-09-09T04:15:56;3.27;;;2.30;;
25982;SDS011;13773;48.868;10.730;2022-09-09T04:18:23;5.10;;;2.47;;
25982;SDS011;13773;48.868;10.730;2022-09-09T04:20:50;5.57;;;2.40;;
25982;SDS011;13773;48.868;10.730;2022-09-09T04:23:16;3.00;;;2.70;;
25982;SDS011;13773;48.868;10.730;2022-09-09T04:25:46;7.17;;;2.73;;
25982;SDS011;13773;48.868;10.730;2022-09-09T04:28:14;4.03;;;3.03;;
25982;SDS011;13773;48.868;10.730;2022-09-09T04:30:40;4.47;;;2.80;;
25982;SDS011;13773;48.868;10.730;2022-09-09T04:33:07;9.07;;;2.87;;
25982;SDS011;13773;48.868;10.730;2022-09-09T04:35:34;3.47;;;2.57;;
25982;SDS011;13773;48.868;10.730;2022-09-09T04:38:00;3.37;;;2.63;;
25982;SDS011;13773;48.868;10.730;2022-09-09T04:40:28;4.87;;;3.20;;
25982;SDS011;13773;48.868;10.730;2022-09-09T04:42:54;5.47;;;3.50;;
25982;SDS011;13773;48.868;10.730;2022-09-09T04:45:22;3.43;;;3.00;;
25982;SDS011;13773;48.868;10.730;2022-09-09T04:47:48;4.13;;;2.90;;
25982;SDS011;13773;48.868;10.730;2022-09-09T04:50:14;5.37;;;2.87;;
25982;SDS011;13773;48.868;10.730;2022-09-09T04:52:40;4.93;;;3.00;;
25982;SDS011;13773;48.868;10.730;2022-09-09T04:55:06;5.57;;;3.57;;
25982;SDS011;13773;48.868;10.730;2022-09-09T04:57:32;6.17;;;3.23;;
25982;SDS011;13773;48.868;10.730;2022-09-09T04:59:59;6.20;;;2.70;;
25982;SDS011;13773;48.868;10.730;2022-09-09T05:02:26;5.13;;;3.23;;
25982;SDS011;13773;48.868;10.730;2022-09-09T05:04:52;6.77;;;3.23;;
25982;SDS011;13773;48.868;10.730;2022-09-09T05:07:17;3.00;;;2.67;;
25982;SDS011;13773;48.868;10.730;2022-09-09T05:09:44;4.53;;;2.50;;
25982;SDS011;13773;48.868;10.730;2022-09-09T05:12:10;3.63;;;2.33;;
25982;SDS011;13773;48.868;10.730;2022-09-09T05:14:36;2.63;;;2.23;;
25982;SDS011;13773;48.868;10.730;2022-09-09T05:17:02;4.63;;;2.80;;
25982;SDS011;13773;48.868;10.730;2022-09-09T05:19:28;4.00;;;2.53;;
25982;SDS011;13773;48.868;10.730;2022-09-09T05:21:55;5.20;;;2.50;;
25982;SDS011;13773;48.868;10.730;2022-09-09T05:24:21;4.73;;;2.50;;
25982;SDS011;13773;48.868;10.730;2022-09-09T05:26:50;4.93;;;2.30;;
25982;SDS011;13773;48.868;10.730;2022-09-09T05:29:16;2.90;;;2.50;;
25982;SDS011;13773;48.868;10.730;2022-09-09T05:31:44;3.63;;;2.77;;
25982;SDS011;13773;48.868;10.730;2022-09-09T05:34:11;5.93;;;2.90;;
25982;SDS011;13773;48.868;10.730;2022-09-09T05:36:37;6.90;;;2.83;;
25982;SDS011;13773;48.868;10.730;2022-09-09T05:39:03;5.67;;;2.87;;
25982;SDS011;13773;48.868;10.730;2022-09-09T05:41:29;5.43;;;2.77;;
25982;SDS011;13773;48.868;10.730;2022-09-09T05:43:56;4.30;;;2.80;;
25982;SDS011;13773;48.868;10.730;2022-09-09T05:46:24;5.47;;;3.07;;
25982;SDS011;13773;48.868;10.730;2022-09-09T05:48:51;4.13;;;2.40;;
25982;SDS011;13773;48.868;10.730;2022-09-09T05:51:19;5.60;;;2.40;;
25982;SDS011;13773;48.868;10.730;2022-09-09T05:53:49;5.23;;;2.30;;
25982;SDS011;13773;48.868;10.730;2022-09-09T05:56:22;5.67;;;2.80;;
25982;SDS011;13773;48.868;10.730;2022-09-09T05:58:53;4.87;;;2.40;;
25982;SDS011;13773;48.868;10.730;2022-09-09T06:01:26;2.90;;;2.30;;
25982;SDS011;13773;48.868;10.730;2022-09-09T06:03:54;2.40;;;2.20;;
25982;SDS011;13773;48.868;10.730;2022-09-09T06:06:21;5.27;;;2.90;;
25982;SDS011;13773;48.868;10.730;2022-09-09T06:08:51;8.40;;;2.60;;
25982;SDS011;13773;48.868;10.730;2022-09-09T06:11:21;7.00;;;2.63;;
25982;SDS011;13773;48.868;10.730;2022-09-09T06:13:48;3.37;;;2.10;;
25982;SDS011;13773;48.868;10.730;2022-09-09T06:16:18;6.67;;;2.53;;
25982;SDS011;13773;48.868;10.730;2022-09-09T06:18:45;2.67;;;1.90;;
25982;SDS011;13773;48.868;10.730;2022-09-09T06:21:16;3.90;;;2.10;;
25982;SDS011;13773;48.868;10.730;2022-09-09T06:23:46;5.87;;;2.97;;
25982;SDS011;13773;48.868;10.730;2022-09-09T06:26:14;6.77;;;2.33;;
25982;SDS011;13773;48.868;10.730;2022-09-09T06:28:46;6.73;;;2.23;;
25982;SDS011;13773;48.868;10.730;2022-09-09T06:31:13;5.20;;;2.10;;
25982;SDS011;13773;48.868;10.730;2022-09-09T06:33:42;2.70;;;2.07;;
25982;SDS011;13773;48.868;10.730;2022-09-09T06:36:16;6.37;;;2.50;;
25982;SDS011;13773;48.868;10.730;2022-09-09T06:38:44;4.93;;;2.07;;
25982;SDS011;13773;48.868;10.730;2022-09-09T06:41:11;3.07;;;2.00;;
25982;SDS011;13773;48.868;10.730;2022-09-09T06:43:39;4.93;;;2.97;;
25982;SDS011;13773;48.868;10.730;2022-09-09T06:46:06;3.83;;;2.47;;
25982;SDS011;13773;48.868;10.730;2022-09-09T06:48:33;5.53;;;2.73;;
25982;SDS011;13773;48.868;10.730;2022-09-09T06:53:31;2.93;;;2.40;;
25982;SDS011;13773;48.868;10.730;2022-09-09T06:55:59;4.97;;;2.53;;
25982;SDS011;13773;48.868;10.730;2022-09-09T06:58:42;5.50;;;2.30;;
25982;SDS011;13773;48.868;10.730;2022-09-09T07:01:09;3.23;;;2.20;;
25982;SDS011;13773;48.868;10.730;2022-09-09T07:03:40;4.73;;;2.33;;
25982;SDS011;13773;48.868;10.730;2022-09-09T07:06:13;5.20;;;2.37;;
25982;SDS011;13773;48.868;10.730;2022-09-09T07:08:42;3.67;;;2.23;;
25982;SDS011;13773;48.868;10.730;2022-09-09T07:11:08;3.50;;;1.97;;
25982;SDS011;13773;48.868;10.730;2022-09-09T07:13:36;3.67;;;2.00;;
25982;SDS011;13773;48.868;10.730;2022-09-09T07:16:06;3.20;;;1.80;;
25982;SDS011;13773;48.868;10.730;2022-09-09T07:18:33;2.60;;;2.00;;
25982;SDS011;13773;48.868;10.730;2022-09-09T07:21:00;4.03;;;2.20;;
25982;SDS011;13773;48.868;10.730;2022-09-09T07:23:27;5.70;;;2.93;;
25982;SDS011;13773;48.868;10.730;2022-09-09T07:25:53;4.27;;;2.43;;
25982;SDS011;13773;48.868;10.730;2022-09-09T07:28:19;4.13;;;2.70;;
25982;SDS011;13773;48.868;10.730;2022-09-09T07:30:58;3.20;;;2.90;;
25982;SDS011;13773;48.868;10.730;2022-09-09T07:33:27;6.73;;;3.57;;
25982;SDS011;13773;48.868;10.730;2022-09-09T07:36:01;5.20;;;3.60;;
25982;SDS011;13773;48.868;10.730;2022-09-09T07:38:32;5.57;;;3.00;;
25982;SDS011;13773;48.868;10.730;2022-09-09T07:41:06;5.27;;;3.13;;
25982;SDS011;13773;48.868;10.730;2022-09-09T07:43:37;6.27;;;3.00;;
25982;SDS011;13773;48.868;10.730;2022-09-09T07:46:07;5.07;;;2.90;;
25982;SDS011;13773;48.868;10.730;2022-09-09T07:48:34;5.53;;;2.70;;
25982;SDS011;13773;48.868;10.730;2022-09-09T07:51:04;3.17;;;2.23;;
25982;SDS011;13773;48.868;10.730;2022-09-09T07:53:32;4.33;;;2.20;;
25982;SDS011;13773;48.868;10.730;2022-09-09T07:56:03;2.47;;;1.90;;
25982;SDS011;13773;48.868;10.730;2022-09-09T07:58:30;6.23;;;2.10;;
25982;SDS011;13773;48.868;10.730;2022-09-09T08:00:55;2.53;;;2.10;;
25982;SDS011;13773;48.868;10.730;2022-09-09T08:03:22;3.87;;;2.03;;
25982;SDS011;13773;48.868;10.730;2022-09-09T08:05:48;4.77;;;2.00;;
25982;SDS011;13773;48.868;10.730;2022-09-09T08:08:14;6.30;;;1.90;;
25982;SDS011;13773;48.868;10.730;2022-09-09T08:10:41;4.57;;;1.73;;
25982;SDS011;13773;48.868;10.730;2022-09-09T08:13:08;3.23;;;1.87;;
25982;SDS011;13773;48.868;10.730;2022-09-09T08:15:34;3.17;;;1.43;;
25982;SDS011;13773;48.868;10.730;2022-09-09T08:18:00;3.13;;;1.60;;
25982;SDS011;13773;48.868;10.730;2022-09-09T08:20:25;3.73;;;1.50;;
25982;SDS011;13773;48.868;10.730;2022-09-09T08:22:51;5.10;;;1.40;;
25982;SDS011;13773;48.868;10.730;2022-09-09T08:25:17;3.10;;;1.40;;
25982;SDS011;13773;48.868;10.730;2022-09-09T08:27:43;2.07;;;1.33;;
25982;SDS011;13773;48.868;10.730;2022-09-09T08:30:09;2.57;;;1.33;;
25982;SDS011;13773;48.868;10.730;2022-09-09T08:32:35;3.33;;;1.53;;
25982;SDS011;13773;48.868;10.730;2022-09-09T08:35:01;3.20;;;1.13;;
25982;SDS011;13773;48.868;10.730;2022-09-09T08:37:26;4.50;;;1.50;;
25982;SDS011;13773;48.868;10.730;2022-09-09T08:39:52;5.07;;;1.40;;
25982;SDS011;13773;48.868;10.730;2022-09-09T08:52:28;4.37;;;1.53;;
25982;SDS011;13773;48.868;10.730;2022-09-09T08:55:03;7.17;;;1.83;;
25982;SDS011;13773;48.868;10.730;2022-09-09T08:57:38;4.17;;;1.70;;
25982;SDS011;13773;48.868;10.730;2022-09-09T09:00:04;2.53;;;1.50;;
25982;SDS011;13773;48.868;10.730;2022-09-09T09:03:18;5.20;;;2.00;;
25982;SDS011;13773;48.868;10.730;2022-09-09T09:05:19;3.87;;;1.60;;
25982;SDS011;13773;48.868;10.730;2022-09-09T09:10:51;5.53;;;2.20;;
25982;SDS011;13773;48.868;10.730;2022-09-09T09:16:04;3.10;;;1.80;;
25982;SDS011;13773;48.868;10.730;2022-09-09T09:18:37;4.97;;;1.70;;
25982;SDS011;13773;48.868;10.730;2022-09-09T09:21:08;4.20;;;2.10;;
25982;SDS011;13773;48.868;10.730;2022-09-09T09:24:02;2.73;;;1.63;;
25982;SDS011;13773;48.868;10.730;2022-09-09T09:26:30;6.10;;;2.10;;
25982;SDS011;13773;48.868;10.730;2022-09-09T09:28:59;4.53;;;1.50;;
25982;SDS011;13773;48.868;10.730;2022-09-09T09:31:33;7.23;;;1.90;;
25982;SDS011;13773;48.868;10.730;2022-09-09T09:33:59;2.17;;;1.40;;
25982;SDS011;13773;48.868;10.730;2022-09-09T09:36:37;3.90;;;1.53;;
25982;SDS011;13773;48.868;10.730;2022-09-09T09:39:07;2.73;;;1.60;;
25982;SDS011;13773;48.868;10.730;2022-09-09T09:41:35;5.90;;;2.03;;
25982;SDS011;13773;48.868;10.730;2022-09-09T09:44:04;4.43;;;1.80;;
25982;SDS011;13773;48.868;10.730;2022-09-09T09:46:32;5.73;;;1.63;;
25982;SDS011;13773;48.868;10.730;2022-09-09T09:48:58;3.97;;;1.67;;
25982;SDS011;13773;48.868;10.730;2022-09-09T09:51:30;3.00;;;1.53;;
25982;SDS011;13773;48.868;10.730;2022-09-09T09:54:06;4.30;;;1.50;;
25982;SDS011;13773;48.868;10.730;2022-09-09T09:56:41;3.20;;;1.40;;
25982;SDS011;13773;48.868;10.730;2022-09-09T09:59:59;3.90;;;1.67;;
25982;SDS011;13773;48.868;10.730;2022-09-09T10:02:16;2.60;;;1.57;;
25982;SDS011;13773;48.868;10.730;2022-09-09T10:04:59;4.97;;;2.00;;
25982;SDS011;13773;48.868;10.730;2022-09-09T10:07:38;3.97;;;2.00;;
25982;SDS011;13773;48.868;10.730;2022-09-09T10:10:04;6.83;;;2.10;;
25982;SDS011;13773;48.868;10.730;2022-09-09T10:22:54;4.80;;;1.50;;
25982;SDS011;13773;48.868;10.730;2022-09-09T10:25:34;2.57;;;1.27;;
25982;SDS011;13773;48.868;10.730;2022-09-09T10:36:18;2.07;;;1.33;;
25982;SDS011;13773;48.868;10.730;2022-09-09T10:38:53;4.73;;;1.63;;
25982;SDS011;13773;48.868;10.730;2022-09-09T10:41:33;2.47;;;1.40;;
25982;SDS011;13773;48.868;10.730;2022-09-09T10:52:40;2.70;;;1.10;;
25982;SDS011;13773;48.868;10.730;2022-09-09T10:55:27;5.13;;;1.87;;
25982;SDS011;13773;48.868;10.730;2022-09-09T10:58:03;2.90;;;1.20;;
25982;SDS011;13773;48.868;10.730;2022-09-09T11:03:28;2.67;;;1.20;;
25982;SDS011;13773;48.868;10.730;2022-09-09T11:06:02;6.10;;;1.47;;
25982;SDS011;13773;48.868;10.730;2022-09-09T11:08:38;14.00;;;2.20;;
25982;SDS011;13773;48.868;10.730;2022-09-09T11:18:36;3.43;;;1.67;;
25982;SDS011;13773;48.868;10.730;2022-09-09T11:21:07;7.87;;;1.83;;
25982;SDS011;13773;48.868;10.730;2022-09-09T11:23:57;6.63;;;1.60;;
25982;SDS011;13773;48.868;10.730;2022-09-09T11:26:35;10.20;;;2.03;;
25982;SDS011;13773;48.868;10.730;2022-09-09T11:34:56;6.50;;;1.90;;
25982;SDS011;13773;48.868;10.730;2022-09-09T11:40:24;7.07;;;1.63;;
25982;SDS011;13773;48.868;10.730;2022-09-09T11:43:03;4.47;;;1.43;;
25982;SDS011;13773;48.868;10.730;2022-09-09T11:45:37;10.73;;;1.97;;
25982;SDS011;13773;48.868;10.730;2022-09-09T11:48:04;7.80;;;2.00;;
25982;SDS011;13773;48.868;10.730;2022-09-09T11:50:34;5.77;;;1.90;;
25982;SDS011;13773;48.868;10.730;2022-09-09T11:53:04;11.07;;;2.50;;
25982;SDS011;13773;48.868;10.730;2022-09-09T11:55:39;9.70;;;2.10;;
25982;SDS011;13773;48.868;10.730;2022-09-09T11:58:06;14.03;;;1.83;;
25982;SDS011;13773;48.868;10.730;2022-09-09T12:00:42;7.67;;;1.93;;
25982;SDS011;13773;48.868;10.730;2022-09-09T12:08:58;5.70;;;1.17;;
25982;SDS011;13773;48.868;10.730;2022-09-09T12:11:31;10.20;;;1.80;;
25982;SDS011;13773;48.868;10.730;2022-09-09T12:13:58;6.60;;;1.60;;
25982;SDS011;13773;48.868;10.730;2022-09-09T12:16:29;4.20;;;1.40;;
25982;SDS011;13773;48.868;10.730;2022-09-09T12:19:03;6.80;;;1.53;;
25982;SDS011;13773;48.868;10.730;2022-09-09T12:21:42;10.37;;;1.90;;
25982;SDS011;13773;48.868;10.730;2022-09-09T12:24:13;10.03;;;2.17;;
25982;SDS011;13773;48.868;10.730;2022-09-09T12:27:06;3.93;;;1.43;;
25982;SDS011;13773;48.868;10.730;2022-09-09T12:30:00;5.83;;;1.37;;
25982;SDS011;13773;48.868;10.730;2022-09-09T12:32:29;4.03;;;1.30;;
25982;SDS011;13773;48.868;10.730;2022-09-09T12:40:26;6.80;;;1.50;;
25982;SDS011;13773;48.868;10.730;2022-09-09T12:42:53;18.67;;;3.40;;
25982;SDS011;13773;48.868;10.730;2022-09-09T12:45:24;15.97;;;3.47;;
25982;SDS011;13773;48.868;10.730;2022-09-09T12:47:58;4.30;;;1.70;;
25982;SDS011;13773;48.868;10.730;2022-09-09T12:50:29;4.20;;;1.53;;
25982;SDS011;13773;48.868;10.730;2022-09-09T12:53:01;4.13;;;1.60;;
25982;SDS011;13773;48.868;10.730;2022-09-09T12:55:32;4.00;;;1.60;;
25982;SDS011;13773;48.868;10.730;2022-09-09T12:58:03;4.37;;;1.97;;
25982;SDS011;13773;48.868;10.730;2022-09-09T13:00:31;5.07;;;1.80;;
25982;SDS011;13773;48.868;10.730;2022-09-09T13:03:00;3.17;;;1.73;;
25982;SDS011;13773;48.868;10.730;2022-09-09T13:05:28;4.10;;;2.00;;
25982;SDS011;13773;48.868;10.730;2022-09-09T13:08:05;4.27;;;1.30;;
25982;SDS011;13773;48.868;10.730;2022-09-09T13:10:35;4.33;;;1.60;;
25982;SDS011;13773;48.868;10.730;2022-09-09T13:13:15;3.83;;;2.17;;
25982;SDS011;13773;48.868;10.730;2022-09-09T13:15:48;5.87;;;1.90;;
25982;SDS011;13773;48.868;10.730;2022-09-09T13:18:20;4.63;;;2.23;;
25982;SDS011;13773;48.868;10.730;2022-09-09T13:20:48;4.50;;;2.10;;
25982;SDS011;13773;48.868;10.730;2022-09-09T13:23:15;8.43;;;2.20;;
25982;SDS011;13773;48.868;10.730;2022-09-09T13:25:52;4.40;;;1.63;;
25982;SDS011;13773;48.868;10.730;2022-09-09T13:28:24;4.50;;;1.77;;
25982;SDS011;13773;48.868;10.730;2022-09-09T13:30:58;7.37;;;2.13;;
25982;SDS011;13773;48.868;10.730;2022-09-09T13:33:29;6.20;;;1.60;;
25982;SDS011;13773;48.868;10.730;2022-09-09T13:36:03;3.93;;;1.70;;
25982;SDS011;13773;48.868;10.730;2022-09-09T13:38:52;6.20;;;1.80;;
25982;SDS011;13773;48.868;10.730;2022-09-09T13:41:23;4.43;;;1.77;;
25982;SDS011;13773;48.868;10.730;2022-09-09T13:44:00;5.07;;;1.30;;
25982;SDS011;13773;48.868;10.730;2022-09-09T13:46:40;3.60;;;1.20;;
25982;SDS011;13773;48.868;10.730;2022-09-09T13:54:05;4.67;;;1.33;;
25982;SDS011;13773;48.868;10.730;2022-09-09T13:56:34;3.30;;;1.37;;
25982;SDS011;13773;48.868;10.730;2022-09-09T13:59:01;3.93;;;1.40;;
25982;SDS011;13773;48.868;10.730;2022-09-09T14:01:28;2.87;;;1.10;;
25982;SDS011;13773;48.868;10.730;2022-09-09T14:03:54;3.77;;;1.33;;
25982;SDS011;13773;48.868;10.730;2022-09-09T14:06:20;4.37;;;1.23;;
25982;SDS011;13773;48.868;10.730;2022-09-09T14:08:47;2.43;;;0.90;;
25982;SDS011;13773;48.868;10.730;2022-09-09T14:11:16;2.33;;;0.70;;
25982;SDS011;13773;48.868;10.730;2022-09-09T14:13:43;2.00;;;0.70;;
25982;SDS011;13773;48.868;10.730;2022-09-09T14:16:09;3.17;;;0.70;;
25982;SDS011;13773;48.868;10.730;2022-09-09T14:18:35;1.97;;;0.70;;
25982;SDS011;13773;48.868;10.730;2022-09-09T14:21:02;1.83;;;0.80;;
25982;SDS011;13773;48.868;10.730;2022-09-09T14:23:28;3.13;;;0.80;;
25982;SDS011;13773;48.868;10.730;2022-09-09T14:25:54;1.30;;;0.60;;
25982;SDS011;13773;48.868;10.730;2022-09-09T14:28:20;2.57;;;1.33;;
25982;SDS011;13773;48.868;10.730;2022-09-09T14:30:46;2.07;;;0.80;;
25982;SDS011;13773;48.868;10.730;2022-09-09T14:33:13;1.87;;;0.90;;
25982;SDS011;13773;48.868;10.730;2022-09-09T14:35:40;2.20;;;0.60;;
25982;SDS011;13773;48.868;10.730;2022-09-09T14:38:07;2.87;;;0.87;;
25982;SDS011;13773;48.868;10.730;2022-09-09T14:40:36;1.90;;;0.80;;
25982;SDS011;13773;48.868;10.730;2022-09-09T14:43:03;2.87;;;0.97;;
25982;SDS011;13773;48.868;10.730;2022-09-09T14:45:30;1.87;;;0.70;;
25982;SDS011;13773;48.868;10.730;2022-09-09T14:47:56;1.47;;;0.80;;
25982;SDS011;13773;48.868;10.730;2022-09-09T14:50:22;3.57;;;0.80;;
25982;SDS011;13773;48.868;10.730;2022-09-09T14:52:48;1.40;;;0.70;;
25982;SDS011;13773;48.868;10.730;2022-09-09T14:55:15;2.37;;;0.90;;
25982;SDS011;13773;48.868;10.730;2022-09-09T14:57:41;2.57;;;0.97;;
25982;SDS011;13773;48.868;10.730;2022-09-09T15:00:07;1.63;;;0.70;;
25982;SDS011;13773;48.868;10.730;2022-09-09T15:02:34;2.50;;;0.93;;
25982;SDS011;13773;48.868;10.730;2022-09-09T15:05:00;2.43;;;0.67;;
25982;SDS011;13773;48.868;10.730;2022-09-09T15:07:26;1.27;;;0.50;;
25982;SDS011;13773;48.868;10.730;2022-09-09T15:09:53;1.97;;;0.77;;
25982;SDS011;13773;48.868;10.730;2022-09-09T15:12:19;1.27;;;0.70;;
25982;SDS011;13773;48.868;10.730;2022-09-09T15:14:46;2.27;;;0.80;;
25982;SDS011;13773;48.868;10.730;2022-09-09T15:17:12;3.93;;;0.80;;
25982;SDS011;13773;48.868;10.730;2022-09-09T15:19:38;1.83;;;0.70;;
25982;SDS011;13773;48.868;10.730;2022-09-09T15:22:04;1.70;;;0.60;;
25982;SDS011;13773;48.868;10.730;2022-09-09T15:24:31;1.87;;;0.80;;
25982;SDS011;13773;48.868;10.730;2022-09-09T15:26:57;2.17;;;0.80;;
25982;SDS011;13773;48.868;10.730;2022-09-09T15:29:23;0.93;;;0.53;;
25982;SDS011;13773;48.868;10.730;2022-09-09T15:31:49;3.50;;;0.70;;
25982;SDS011;13773;48.868;10.730;2022-09-09T15:34:16;2.17;;;0.90;;
25982;SDS011;13773;48.868;10.730;2022-09-09T15:36:44;2.63;;;0.53;;
25982;SDS011;13773;48.868;10.730;2022-09-09T15:39:16;2.33;;;1.00;;
25982;SDS011;13773;48.868;10.730;2022-09-09T15:41:46;3.27;;;0.80;;
25982;SDS011;13773;48.868;10.730;2022-09-09T15:44:13;3.97;;;0.80;;
25982;SDS011;13773;48.868;10.730;2022-09-09T15:46:41;2.67;;;1.00;;
25982;SDS011;13773;48.868;10.730;2022-09-09T15:49:14;2.87;;;0.80;;
25982;SDS011;13773;48.868;10.730;2022-09-09T15:51:45;1.83;;;0.90;;
25982;SDS011;13773;48.868;10.730;2022-09-09T15:54:16;1.63;;;0.63;;
25982;SDS011;13773;48.868;10.730;2022-09-09T15:56:43;2.90;;;0.93;;
25982;SDS011;13773;48.868;10.730;2022-09-09T15:59:11;2.23;;;0.70;;
25982;SDS011;13773;48.868;10.730;2022-09-09T16:01:37;1.47;;;0.77;;
25982;SDS011;13773;48.868;10.730;2022-09-09T16:04:04;1.33;;;0.60;;
25982;SDS011;13773;48.868;10.730;2022-09-09T16:06:31;2.03;;;0.90;;
25982;SDS011;13773;48.868;10.730;2022-09-09T16:08:58;1.23;;;0.80;;
25982;SDS011;13773;48.868;10.730;2022-09-09T16:11:29;1.77;;;1.00;;
25982;SDS011;13773;48.868;10.730;2022-09-09T16:13:57;1.33;;;0.80;;
25982;SDS011;13773;48.868;10.730;2022-09-09T16:16:24;1.80;;;1.20;;
25982;SDS011;13773;48.868;10.730;2022-09-09T16:18:55;3.63;;;1.23;;
25982;SDS011;13773;48.868;10.730;2022-09-09T16:21:30;1.97;;;0.80;;
25982;SDS011;13773;48.868;10.730;2022-09-09T16:23:58;3.53;;;0.80;;
25982;SDS011;13773;48.868;10.730;2022-09-09T16:26:26;2.87;;;0.80;;
25982;SDS011;13773;48.868;10.730;2022-09-09T16:28:55;3.23;;;0.80;;
25982;SDS011;13773;48.868;10.730;2022-09-09T16:31:23;1.27;;;0.70;;
25982;SDS011;13773;48.868;10.730;2022-09-09T16:33:49;2.90;;;0.80;;
25982;SDS011;13773;48.868;10.730;2022-09-09T16:36:16;2.07;;;1.10;;
25982;SDS011;13773;48.868;10.730;2022-09-09T16:38:44;1.00;;;0.90;;
25982;SDS011;13773;48.868;10.730;2022-09-09T16:41:10;2.07;;;0.70;;
25982;SDS011;13773;48.868;10.730;2022-09-09T16:43:38;2.27;;;0.97;;
25982;SDS011;13773;48.868;10.730;2022-09-09T16:46:14;2.17;;;0.70;;
25982;SDS011;13773;48.868;10.730;2022-09-09T16:48:43;2.20;;;0.90;;
25982;SDS011;13773;48.868;10.730;2022-09-09T16:51:16;3.03;;;1.00;;
25982;SDS011;13773;48.868;10.730;2022-09-09T16:53:43;6.53;;;3.00;;
25982;SDS011;13773;48.868;10.730;2022-09-09T16:56:10;4.33;;;2.30;;
25982;SDS011;13773;48.868;10.730;2022-09-09T16:58:41;3.87;;;1.57;;
25982;SDS011;13773;48.868;10.730;2022-09-09T17:01:10;3.97;;;1.70;;
25982;SDS011;13773;48.868;10.730;2022-09-09T17:03:39;4.73;;;1.37;;
25982;SDS011;13773;48.868;10.730;2022-09-09T17:06:11;2.07;;;0.90;;
25982;SDS011;13773;48.868;10.730;2022-09-09T17:08:39;2.20;;;0.90;;
25982;SDS011;13773;48.868;10.730;2022-09-09T17:11:16;3.07;;;1.43;;
25982;SDS011;13773;48.868;10.730;2022-09-09T17:13:43;1.90;;;0.90;;
25982;SDS011;13773;48.868;10.730;2022-09-09T17:16:13;2.30;;;1.20;;